Time;durP1;ratioP1;P1;durP2;ratioP2;P2;SDS_P1;SDS_P2;PMS_P1;PMS_P2;Temp;Humidity;BMP_temperature;BMP_pressure;BME280_temperature;BME280_humidity;BME280_pressure;Samples;Min_cycle;Max_cycle;Signal;HPM_P1;HPM_P2
2022/09/12 00:00:31;;;;;;;15.93;13.50;;;13.10;99.90;;;;;;4901039;29;20434;-76
2022/09/12 00:02:57;;;;;;;15.80;14.13;;;13.10;99.90;;;;;;4901102;29;20431;-75
2022/09/12 00:05:23;;;;;;;17.93;12.73;;;13.00;99.90;;;;;;4900635;29;20186;-74
2022/09/12 00:07:49;;;;;;;17.40;14.53;;;13.00;99.90;;;;;;4900799;29;20423;-76
2022/09/12 00:10:15;;;;;;;17.53;13.67;;;13.00;99.90;;;;;;4899597;29;20478;-78
2022/09/12 00:12:41;;;;;;;14.20;12.70;;;13.00;99.90;;;;;;4900841;29;20179;-75
2022/09/12 00:15:07;;;;;;;15.67;13.80;;;13.00;99.90;;;;;;4899303;29;20442;-77
2022/09/12 00:17:34;;;;;;;26.83;14.30;;;12.90;99.90;;;;;;4900609;29;20558;-76
2022/09/12 00:19:59;;;;;;;19.60;13.23;;;12.90;99.90;;;;;;4899091;29;20467;-74
2022/09/12 00:22:25;;;;;;;16.90;13.30;;;12.90;99.90;;;;;;4900451;29;20471;-76
2022/09/12 00:24:51;;;;;;;26.03;13.60;;;12.90;99.90;;;;;;4900163;29;20179;-75
2022/09/12 00:27:16;;;;;;;18.57;14.30;;;12.90;99.90;;;;;;4900238;29;20731;-74
2022/09/12 00:29:42;;;;;;;21.23;14.37;;;12.90;99.90;;;;;;4900520;29;20234;-75
2022/09/12 00:32:08;;;;;;;17.00;15.30;;;12.90;99.90;;;;;;4900211;29;20548;-77
2022/09/12 00:34:34;;;;;;;21.00;14.47;;;12.90;99.90;;;;;;4899992;29;20411;-74
2022/09/12 00:37:00;;;;;;;19.20;16.17;;;12.90;99.90;;;;;;4900187;29;20212;-75
2022/09/12 00:39:25;;;;;;;19.57;14.67;;;12.90;99.90;;;;;;4900258;29;20467;-74
2022/09/12 00:41:51;;;;;;;18.17;14.30;;;12.90;99.90;;;;;;4900308;29;20179;-74
2022/09/12 00:44:23;;;;;;;15.83;13.83;;;12.80;99.90;;;;;;4899685;29;20720;-75
2022/09/12 00:47:03;;;;;;;16.60;14.70;;;12.80;99.90;;;;;;4900076;29;20195;-74
2022/09/12 00:49:33;;;;;;;16.33;14.23;;;12.80;99.90;;;;;;4900213;29;20419;-74
2022/09/12 00:52:21;;;;;;;25.13;15.70;;;12.90;99.90;;;;;;4900374;29;20559;-76
2022/09/12 00:54:56;;;;;;;18.37;15.27;;;12.80;99.90;;;;;;4899886;29;20454;-75
2022/09/12 00:57:27;;;;;;;17.20;14.63;;;12.80;99.90;;;;;;4899968;29;20458;-74
2022/09/12 00:59:57;;;;;;;16.07;13.90;;;12.70;99.90;;;;;;4899951;29;20459;-74
2022/09/12 01:02:23;;;;;;;15.87;14.17;;;12.70;99.90;;;;;;4899869;29;20415;-75
2022/09/12 01:04:50;;;;;;;18.90;14.50;;;12.80;99.90;;;;;;4898995;29;20428;-77
2022/09/12 01:07:16;;;;;;;18.70;13.50;;;12.80;99.90;;;;;;4899643;29;20621;-74
2022/09/12 01:09:44;;;;;;;15.73;12.73;;;12.70;99.90;;;;;;4899634;29;20419;-73
2022/09/12 01:12:11;;;;;;;16.87;13.17;;;12.70;99.90;;;;;;4899553;29;20186;-77
2022/09/12 01:14:37;;;;;;;20.00;16.23;;;12.70;99.90;;;;;;4899095;29;20419;-76
2022/09/12 01:17:03;;;;;;;18.90;15.53;;;12.60;99.90;;;;;;4898351;29;20495;-76
2022/09/12 01:20:01;;;;;;;20.63;13.90;;;12.50;99.90;;;;;;4899327;29;20463;-74
2022/09/12 01:22:45;;;;;;;22.87;14.90;;;12.50;99.90;;;;;;4899345;29;20174;-74
2022/09/12 01:25:27;;;;;;;18.10;14.67;;;12.60;99.90;;;;;;4899135;29;20958;-76
2022/09/12 01:28:25;;;;;;;20.60;15.00;;;12.60;99.90;;;;;;4899214;29;20502;-75
2022/09/12 01:31:18;;;;;;;21.10;15.20;;;12.50;99.90;;;;;;4899105;29;20415;-75
2022/09/12 01:34:01;;;;;;;14.60;13.17;;;12.60;99.90;;;;;;4899169;29;20783;-73
2022/09/12 01:36:51;;;;;;;15.47;13.80;;;12.60;99.90;;;;;;4899010;29;21003;-76
2022/09/12 01:39:34;;;;;;;17.47;14.83;;;12.60;99.90;;;;;;4899063;29;20463;-74
2022/09/12 01:42:23;;;;;;;20.70;17.20;;;12.60;99.90;;;;;;4899411;29;20423;-76
2022/09/12 01:44:48;;;;;;;16.07;14.37;;;12.60;99.90;;;;;;4895635;29;20932;-76
2022/09/12 01:47:29;;;;;;;26.00;17.20;;;12.60;99.90;;;;;;4899019;29;20467;-73
2022/09/12 01:50:15;;;;;;;18.90;15.90;;;12.60;99.90;;;;;;4899228;29;20182;-74
2022/09/12 01:53:04;;;;;;;17.90;14.20;;;12.60;99.90;;;;;;4898941;29;20419;-75
2022/09/12 01:55:29;;;;;;;22.97;16.80;;;12.60;99.90;;;;;;4898166;29;20439;-76
2022/09/12 01:58:16;;;;;;;18.10;16.20;;;12.60;99.90;;;;;;4898875;29;20823;-75
2022/09/12 02:01:07;;;;;;;19.90;15.80;;;12.60;99.90;;;;;;4898744;29;20206;-75
2022/09/12 02:03:48;;;;;;;21.60;17.17;;;12.60;99.90;;;;;;4897508;29;20419;-75
2022/09/12 02:06:19;;;;;;;21.83;16.23;;;12.50;99.90;;;;;;4898765;29;20419;-74
2022/09/12 02:08:53;;;;;;;19.17;16.60;;;12.50;99.90;;;;;;4897279;29;20785;-75
2022/09/12 02:11:19;;;;;;;19.20;16.70;;;12.50;99.90;;;;;;4898735;29;20764;-74
2022/09/12 02:14:20;;;;;;;18.40;16.37;;;12.40;99.90;;;;;;4897275;29;20486;-75
2022/09/12 02:16:50;;;;;;;19.43;15.53;;;12.40;99.90;;;;;;4893844;29;20439;-75
2022/09/12 02:19:19;;;;;;;26.23;17.60;;;12.40;99.90;;;;;;4898428;29;20474;-74
2022/09/12 02:22:05;;;;;;;23.57;18.97;;;12.40;99.90;;;;;;4898439;29;20936;-76
2022/09/12 02:24:41;;;;;;;23.93;17.30;;;12.40;99.90;;;;;;4898140;29;20464;-74
2022/09/12 02:27:23;;;;;;;20.33;18.10;;;12.40;99.90;;;;;;4898260;29;20469;-73
2022/09/12 02:29:49;;;;;;;23.70;17.93;;;12.40;99.90;;;;;;4898307;29;20438;-74
2022/09/12 02:32:14;;;;;;;26.23;18.50;;;12.40;99.90;;;;;;4898254;29;20415;-74
2022/09/12 02:34:49;;;;;;;24.17;18.03;;;12.40;99.90;;;;;;4897977;29;20427;-75
2022/09/12 02:37:27;;;;;;;24.37;18.53;;;12.40;99.90;;;;;;4897997;29;20273;-75
2022/09/12 02:39:56;;;;;;;22.80;17.90;;;12.40;99.90;;;;;;4898520;29;20466;-73
2022/09/12 02:42:22;;;;;;;25.20;19.37;;;12.40;99.90;;;;;;4897031;29;20527;-73
2022/09/12 02:44:49;;;;;;;33.47;21.13;;;12.40;99.90;;;;;;4897878;29;20498;-74
2022/09/12 02:47:24;;;;;;;25.77;20.67;;;12.40;99.90;;;;;;4897867;29;20439;-73
2022/09/12 02:49:50;;;;;;;27.17;19.40;;;12.50;99.90;;;;;;4898328;29;20470;-74
2022/09/12 02:52:16;;;;;;;24.50;19.33;;;12.50;99.90;;;;;;4898228;29;20431;-74
2022/09/12 02:54:43;;;;;;;26.63;20.10;;;12.50;99.90;;;;;;4897777;29;20434;-73
2022/09/12 02:57:16;;;;;;;28.97;19.53;;;12.40;99.90;;;;;;4897952;29;20450;-74
2022/09/12 02:59:41;;;;;;;28.03;19.53;;;12.50;99.90;;;;;;4898135;29;20459;-74
2022/09/12 03:02:17;;;;;;;27.27;19.67;;;12.40;99.90;;;;;;4898137;29;20430;-74
2022/09/12 03:04:48;;;;;;;25.40;18.83;;;12.50;99.90;;;;;;4897938;29;20175;-73
2022/09/12 03:07:48;;;;;;;27.20;20.17;;;12.50;99.90;;;;;;4897945;29;20446;-75
2022/09/12 03:10:35;;;;;;;28.77;19.93;;;12.40;99.90;;;;;;4898109;29;20447;-74
2022/09/12 03:13:16;;;;;;;28.57;21.80;;;12.40;99.90;;;;;;4897967;29;20836;-73
2022/09/12 03:16:04;;;;;;;25.47;18.57;;;12.40;99.90;;;;;;4897550;29;20458;-75
2022/09/12 03:18:42;;;;;;;28.80;20.30;;;12.40;99.90;;;;;;4897755;29;20510;-75
2022/09/12 03:21:40;;;;;;;29.03;20.90;;;12.40;99.90;;;;;;4880933;29;20483;-75
2022/09/12 03:24:28;;;;;;;26.20;18.40;;;12.30;99.90;;;;;;4896429;29;20878;-75
2022/09/12 03:27:00;;;;;;;24.43;18.87;;;12.30;99.90;;;;;;4881060;29;20443;-73
2022/09/12 03:29:28;;;;;;;27.53;20.10;;;12.30;99.90;;;;;;4900631;29;20474;-74
2022/09/12 03:31:56;;;;;;;25.03;19.40;;;12.20;99.90;;;;;;4901311;29;20466;-75
2022/09/12 03:34:24;;;;;;;22.67;19.67;;;12.20;99.90;;;;;;4899800;29;20458;-73
2022/09/12 03:36:50;;;;;;;25.10;19.47;;;12.20;99.90;;;;;;4901172;29;20490;-76
2022/09/12 03:39:16;;;;;;;27.27;18.83;;;12.30;99.90;;;;;;4884232;29;21054;-73
2022/09/12 03:41:41;;;;;;;24.60;18.57;;;12.20;99.90;;;;;;4901003;29;20411;-76
2022/09/12 03:44:07;;;;;;;27.17;20.27;;;12.20;99.90;;;;;;4899689;29;20419;-75
2022/09/12 03:46:33;;;;;;;26.20;18.67;;;12.20;99.90;;;;;;4901449;29;20203;-74
2022/09/12 03:48:59;;;;;;;26.03;19.80;;;12.30;99.90;;;;;;4901378;29;20487;-74
2022/09/12 03:51:25;;;;;;;28.97;20.40;;;12.30;99.90;;;;;;4901268;29;20419;-73
2022/09/12 03:53:50;;;;;;;28.60;20.30;;;12.20;99.90;;;;;;4900636;29;20505;-73
2022/09/12 03:56:18;;;;;;;32.77;21.83;;;12.10;99.90;;;;;;4901105;29;20617;-75
2022/09/12 03:58:44;;;;;;;28.07;19.43;;;12.20;99.90;;;;;;4901012;29;20206;-75
2022/09/12 04:01:16;;;;;;;29.57;19.33;;;12.10;99.90;;;;;;4901049;29;20422;-75
2022/09/12 04:03:43;;;;;;;31.00;20.83;;;12.10;99.90;;;;;;4900708;29;20407;-75
2022/09/12 04:06:11;;;;;;;28.90;21.13;;;12.10;99.90;;;;;;4900524;29;20435;-75
2022/09/12 04:08:37;;;;;;;27.50;20.60;;;12.10;99.90;;;;;;4900740;29;20803;-76
2022/09/12 04:11:14;;;;;;;27.67;19.33;;;12.10;99.90;;;;;;4900790;29;20419;-76
2022/09/12 04:13:41;;;;;;;29.37;21.87;;;12.10;99.90;;;;;;4900722;29;20415;-75
2022/09/12 04:16:08;;;;;;;31.13;21.97;;;12.10;99.90;;;;;;4900368;29;20952;-74
2022/09/12 04:18:33;;;;;;;29.37;21.10;;;12.10;99.90;;;;;;4883697;29;20437;-77
2022/09/12 04:21:06;;;;;;;32.40;23.13;;;12.10;99.90;;;;;;4900682;29;20411;-77
2022/09/12 04:23:32;;;;;;;32.23;22.10;;;12.10;99.90;;;;;;4900617;29;20167;-78
2022/09/12 04:26:00;;;;;;;30.20;20.70;;;12.10;99.90;;;;;;4898740;29;20963;-74
2022/09/12 04:28:27;;;;;;;29.80;21.50;;;12.10;99.90;;;;;;4899181;29;20203;-76
2022/09/12 04:30:54;;;;;;;28.30;21.80;;;12.20;99.90;;;;;;4900344;29;20474;-76
2022/09/12 04:33:20;;;;;;;30.13;21.07;;;12.20;99.90;;;;;;4900275;29;20467;-74
2022/09/12 04:35:47;;;;;;;30.03;21.90;;;12.20;99.90;;;;;;4898562;29;20963;-75
2022/09/12 04:38:13;;;;;;;25.60;19.10;;;12.20;99.90;;;;;;4900132;29;20419;-76
2022/09/12 04:40:38;;;;;;;29.37;20.83;;;12.30;99.90;;;;;;4899353;29;20562;-75
2022/09/12 04:43:05;;;;;;;29.27;20.43;;;12.20;99.90;;;;;;4898860;29;20842;-74
2022/09/12 04:45:32;;;;;;;29.17;21.63;;;12.30;99.90;;;;;;4899850;29;20546;-75
2022/09/12 04:47:57;;;;;;;30.13;21.20;;;12.20;99.90;;;;;;4900094;29;20463;-76
2022/09/12 04:50:23;;;;;;;32.03;23.10;;;12.30;99.90;;;;;;4900066;29;20431;-74
2022/09/12 04:52:52;;;;;;;32.67;22.33;;;12.20;99.90;;;;;;4900031;29;20191;-77
2022/09/12 04:55:20;;;;;;;32.43;21.30;;;12.20;99.90;;;;;;4899705;29;20218;-75
2022/09/12 04:57:45;;;;;;;32.00;21.93;;;12.20;99.90;;;;;;4899757;29;20982;-73
2022/09/12 05:00:15;;;;;;;28.40;21.40;;;12.30;99.90;;;;;;4898396;29;20507;-74
2022/09/12 05:02:41;;;;;;;29.70;20.70;;;12.30;99.90;;;;;;4900038;29;20186;-76
2022/09/12 05:05:07;;;;;;;32.03;22.97;;;12.30;99.90;;;;;;4899565;29;20427;-73
2022/09/12 05:07:33;;;;;;;33.47;22.90;;;12.30;99.90;;;;;;4891221;29;20956;-75
2022/09/12 05:09:59;;;;;;;37.20;21.90;;;12.40;99.90;;;;;;4888645;29;20424;-74
2022/09/12 05:12:26;;;;;;;34.70;23.20;;;12.40;99.90;;;;;;4896830;29;20190;-73
2022/09/12 05:14:51;;;;;;;27.93;21.27;;;12.40;99.90;;;;;;4899217;29;20274;-75
2022/09/12 05:17:17;;;;;;;34.03;22.70;;;12.40;99.90;;;;;;4899415;29;20486;-75
2022/09/12 05:19:42;;;;;;;35.10;23.60;;;12.50;99.90;;;;;;4898191;29;20214;-76
2022/09/12 05:22:08;;;;;;;36.20;26.07;;;12.50;99.90;;;;;;4899199;29;20190;-73
2022/09/12 05:24:34;;;;;;;34.03;22.70;;;12.50;99.90;;;;;;4898963;29;20171;-73
2022/09/12 05:27:00;;;;;;;35.10;24.07;;;12.60;99.90;;;;;;4899304;29;20443;-76
2022/09/12 05:29:25;;;;;;;41.43;23.87;;;12.60;99.90;;;;;;4899063;29;20203;-76
2022/09/12 05:31:52;;;;;;;32.63;23.13;;;12.60;99.90;;;;;;4899214;29;20189;-76
2022/09/12 05:34:18;;;;;;;33.90;22.40;;;12.60;99.90;;;;;;4898756;29;20423;-75
2022/09/12 05:36:44;;;;;;;32.47;21.60;;;12.70;99.90;;;;;;4898996;29;20550;-73
2022/09/12 05:39:10;;;;;;;30.80;21.57;;;12.80;99.90;;;;;;4899022;29;20549;-74
2022/09/12 05:41:35;;;;;;;28.80;21.60;;;12.80;99.90;;;;;;4899127;29;20524;-75
2022/09/12 05:44:04;;;;;;;34.30;24.27;;;12.90;99.90;;;;;;4897474;29;20198;-75
2022/09/12 05:46:34;;;;;;;36.33;21.57;;;13.00;99.90;;;;;;4898633;29;20214;-74
2022/09/12 05:49:05;;;;;;;31.53;22.30;;;13.00;99.90;;;;;;4898833;29;20483;-74
2022/09/12 05:51:37;;;;;;;28.47;21.43;;;13.10;99.90;;;;;;4898788;29;20427;-76
2022/09/12 05:54:04;;;;;;;35.63;23.50;;;13.10;99.90;;;;;;4898289;29;20415;-73
2022/09/12 05:56:33;;;;;;;34.63;24.93;;;13.10;99.90;;;;;;4898499;29;20859;-74
2022/09/12 05:59:00;;;;;;;38.37;27.23;;;13.10;99.90;;;;;;4898658;29;20490;-75
2022/09/12 06:01:27;;;;;;;37.57;25.97;;;13.10;99.90;;;;;;4892698;29;20794;-74
2022/09/12 06:03:55;;;;;;;37.27;26.83;;;13.10;99.90;;;;;;4879733;29;20423;-75
2022/09/12 06:06:23;;;;;;;40.67;25.60;;;13.10;99.90;;;;;;4879921;29;20439;-75
2022/09/12 06:08:51;;;;;;;42.43;25.87;;;13.20;99.90;;;;;;4879741;29;20428;-74
2022/09/12 06:11:19;;;;;;;36.70;26.97;;;13.30;99.90;;;;;;4879904;29;20420;-75
2022/09/12 06:13:45;;;;;;;35.87;25.47;;;13.40;99.90;;;;;;4879733;29;20503;-74
2022/09/12 06:16:17;;;;;;;35.00;25.03;;;13.50;99.90;;;;;;4893983;29;20527;-74
2022/09/12 06:18:52;;;;;;;33.73;25.67;;;13.50;99.90;;;;;;4879899;29;20238;-74
2022/09/12 06:21:21;;;;;;;40.07;26.13;;;13.50;99.90;;;;;;4894111;29;20506;-73
2022/09/12 06:23:47;;;;;;;35.87;24.33;;;13.60;99.90;;;;;;4879319;29;20431;-75
2022/09/12 06:26:16;;;;;;;35.17;25.33;;;13.60;99.90;;;;;;4879714;29;20476;-74
2022/09/12 06:28:46;;;;;;;34.63;24.57;;;13.70;99.90;;;;;;4879537;29;20440;-75
2022/09/12 06:31:15;;;;;;;37.73;25.30;;;13.70;99.90;;;;;;4879719;29;20482;-73
2022/09/12 06:33:44;;;;;;;33.57;24.80;;;13.90;99.90;;;;;;4879532;29;20479;-75
2022/09/12 06:36:24;;;;;;;38.70;25.60;;;14.00;99.90;;;;;;4879137;29;20860;-75
2022/09/12 06:38:55;;;;;;;36.07;23.07;;;14.10;99.90;;;;;;4879322;29;20523;-74
2022/09/12 06:41:21;;;;;;;34.27;24.30;;;14.10;99.90;;;;;;4879437;29;20420;-74
2022/09/12 06:43:46;;;;;;;31.60;22.30;;;14.20;99.90;;;;;;4893508;29;20527;-75
2022/09/12 06:46:12;;;;;;;31.27;23.17;;;14.30;99.90;;;;;;4879373;29;20443;-75
2022/09/12 06:48:37;;;;;;;29.63;21.60;;;14.50;99.90;;;;;;4893785;29;20218;-74
2022/09/12 06:51:06;;;;;;;31.70;22.17;;;14.50;99.90;;;;;;4879446;29;20183;-73
2022/09/12 06:53:32;;;;;;;29.47;21.87;;;14.60;99.90;;;;;;4879578;29;20171;-75
2022/09/12 06:56:04;;;;;;;28.83;22.10;;;14.80;99.90;;;;;;4878056;29;20507;-74
2022/09/12 06:58:30;;;;;;;31.50;22.73;;;14.90;99.90;;;;;;4879531;29;20832;-74
2022/09/12 07:01:03;;;;;;;28.80;20.30;;;15.00;99.90;;;;;;4879302;29;20436;-75
2022/09/12 07:03:30;;;;;;;27.60;19.13;;;15.00;99.90;;;;;;4880963;29;20207;-74
2022/09/12 07:05:56;;;;;;;26.07;19.90;;;15.10;99.90;;;;;;4897187;29;20810;-75
2022/09/12 07:08:21;;;;;;;24.30;19.33;;;15.10;99.90;;;;;;4883085;29;20399;-75
2022/09/12 07:10:47;;;;;;;27.00;19.20;;;15.10;99.90;;;;;;4883283;29;20242;-74
2022/09/12 07:13:13;;;;;;;26.77;19.97;;;15.20;99.90;;;;;;4883138;29;20183;-75
2022/09/12 07:15:39;;;;;;;32.20;21.20;;;15.20;99.90;;;;;;4882753;29;20206;-75
2022/09/12 07:18:05;;;;;;;24.20;18.30;;;15.30;99.90;;;;;;4881951;29;20199;-74
2022/09/12 07:20:33;;;;;;;22.47;18.90;;;15.40;99.90;;;;;;4882819;29;20467;-75
2022/09/12 07:22:59;;;;;;;23.93;18.97;;;15.40;99.90;;;;;;4882779;29;20176;-74
2022/09/12 07:25:25;;;;;;;24.43;18.27;;;15.50;99.90;;;;;;4896773;29;20435;-73
2022/09/12 07:27:52;;;;;;;20.77;17.00;;;15.60;99.90;;;;;;4882649;29;20240;-75
2022/09/12 07:30:18;;;;;;;23.57;18.10;;;15.70;99.90;;;;;;4882677;29;20426;-74
2022/09/12 07:32:44;;;;;;;23.70;17.00;;;15.80;99.90;;;;;;4882615;29;20427;-74
2022/09/12 07:35:09;;;;;;;22.90;16.80;;;15.90;99.90;;;;;;4882323;29;20402;-74
2022/09/12 07:37:35;;;;;;;23.70;16.13;;;16.00;99.90;;;;;;4882411;29;20215;-75
2022/09/12 07:40:01;;;;;;;25.03;16.43;;;16.10;99.90;;;;;;4896485;29;20562;-74
2022/09/12 07:42:27;;;;;;;19.83;17.70;;;16.30;99.90;;;;;;4896886;29;20180;-74
2022/09/12 07:44:53;;;;;;;20.07;15.50;;;16.50;99.90;;;;;;4882097;29;20442;-75
2022/09/12 07:47:18;;;;;;;21.27;14.80;;;16.60;99.90;;;;;;4882301;29;20200;-73
2022/09/12 07:49:44;;;;;;;19.33;15.50;;;16.80;99.90;;;;;;4882218;29;20581;-75
2022/09/12 07:52:09;;;;;;;18.87;14.57;;;16.90;99.90;;;;;;4882444;29;20192;-74
2022/09/12 07:54:35;;;;;;;18.20;14.10;;;17.10;99.90;;;;;;4881946;29;20188;-74
2022/09/12 07:57:01;;;;;;;17.13;12.70;;;17.10;99.90;;;;;;4882089;29;20673;-75
2022/09/12 07:59:26;;;;;;;19.10;14.87;;;17.30;99.90;;;;;;4882039;29;20628;-76
2022/09/12 08:01:52;;;;;;;16.33;13.60;;;17.50;99.90;;;;;;4882032;29;20746;-74
2022/09/12 08:04:18;;;;;;;15.00;12.90;;;17.70;99.90;;;;;;4881854;29;20420;-74
2022/09/12 08:06:43;;;;;;;15.10;13.33;;;17.70;99.90;;;;;;4882143;29;20672;-74
2022/09/12 08:09:11;;;;;;;16.50;12.70;;;17.70;99.90;;;;;;4882233;29;20223;-75
2022/09/12 08:11:36;;;;;;;14.80;12.53;;;17.80;99.90;;;;;;4881963;29;20561;-75
2022/09/12 08:14:04;;;;;;;13.93;12.30;;;17.70;99.90;;;;;;4881004;29;20403;-76
2022/09/12 08:16:31;;;;;;;14.67;12.27;;;17.80;99.90;;;;;;4895756;29;20581;-73
2022/09/12 08:18:56;;;;;;;15.40;11.83;;;17.90;99.90;;;;;;4881755;29;20442;-75
2022/09/12 08:21:25;;;;;;;14.27;12.73;;;18.00;99.90;;;;;;4882072;29;20397;-76
2022/09/12 08:23:56;;;;;;;17.30;12.93;;;18.10;99.90;;;;;;4880292;29;20407;-75
2022/09/12 08:26:22;;;;;;;14.27;12.00;;;18.10;99.90;;;;;;4881701;29;20436;-74
2022/09/12 08:28:48;;;;;;;15.70;12.97;;;18.20;99.90;;;;;;4881558;29;20971;-75
2022/09/12 08:31:16;;;;;;;15.10;12.60;;;18.20;99.90;;;;;;4880357;29;20411;-74
2022/09/12 08:33:42;;;;;;;17.57;12.83;;;18.30;99.90;;;;;;4881365;29;20402;-74
2022/09/12 08:36:20;;;;;;;17.80;12.20;;;18.40;99.90;;;;;;4895541;29;21005;-75
2022/09/12 08:38:47;;;;;;;15.63;12.37;;;18.60;99.90;;;;;;4881453;29;20460;-75
2022/09/12 08:41:37;;;;;;;14.87;11.70;;;18.90;99.90;;;;;;4881425;29;20409;-76
2022/09/12 08:44:10;;;;;;;14.90;13.00;;;19.30;99.90;;;;;;4880918;29;20412;-76
2022/09/12 08:46:44;;;;;;;17.90;11.40;;;19.80;99.90;;;;;;4881189;29;20439;-75
2022/09/12 08:49:14;;;;;;;16.03;11.63;;;20.00;99.90;;;;;;4881281;29;20414;-76
2022/09/12 08:51:40;;;;;;;14.93;12.00;;;19.90;99.90;;;;;;4881243;29;20420;-75
2022/09/12 08:54:20;;;;;;;14.30;11.00;;;20.20;99.90;;;;;;4880962;29;20507;-75
2022/09/12 08:56:46;;;;;;;11.63;10.13;;;20.60;99.90;;;;;;4880968;29;20414;-75
2022/09/12 08:59:12;;;;;;;13.27;9.33;;;21.10;99.90;;;;;;4881208;29;20952;-77
2022/09/12 09:01:44;;;;;;;14.93;10.00;;;21.80;99.90;;;;;;4881167;29;20452;-76
2022/09/12 09:04:34;;;;;;;10.50;7.40;;;22.30;99.90;;;;;;4880598;29;20416;-75
2022/09/12 09:07:57;;;;;;;9.90;6.10;;;22.00;99.90;;;;;;4895432;29;20434;-75
2022/09/12 09:10:55;;;;;;;7.90;6.20;;;22.20;99.90;;;;;;4897589;29;20423;-75
2022/09/12 09:16:31;;;;;;;4.80;4.40;;;22.60;99.90;;;;;;4880689;29;20959;-76
2022/09/12 09:18:59;;;;;;;5.50;4.80;;;22.80;99.90;;;;;;4880699;29;20467;-77
2022/09/12 09:21:31;;;;;;;4.63;4.30;;;23.20;99.90;;;;;;4880622;29;20416;-75
2022/09/12 09:24:10;;;;;;;4.50;4.10;;;22.90;99.90;;;;;;4880431;29;20412;-75
2022/09/12 09:26:45;;;;;;;5.33;4.50;;;22.80;99.90;;;;;;4880215;29;20803;-75
2022/09/12 09:29:18;;;;;;;5.67;4.97;;;23.00;99.90;;;;;;4895155;29;20821;-75
2022/09/12 09:31:48;;;;;;;9.43;5.00;;;23.80;99.90;;;;;;4880507;29;20432;-77
2022/09/12 09:34:21;;;;;;;5.80;5.07;;;24.00;99.90;;;;;;4880041;29;20434;-75
2022/09/12 09:36:57;;;;;;;3.83;3.50;;;24.30;99.90;;;;;;4880578;29;20440;-77
2022/09/12 09:39:46;;;;;;;4.20;3.80;;;25.40;99.90;;;;;;4880487;29;20470;-75
2022/09/12 09:42:17;;;;;;;3.33;2.90;;;25.90;99.90;;;;;;4883035;29;20424;-77
2022/09/12 09:44:46;;;;;;;4.73;3.80;;;26.10;99.90;;;;;;4879938;29;20427;-76
2022/09/12 09:47:12;;;;;;;3.57;3.23;;;26.30;99.90;;;;;;4880222;29;20441;-74
2022/09/12 09:49:38;;;;;;;4.80;4.03;;;25.70;99.90;;;;;;4880471;29;20773;-76
2022/09/12 09:52:07;;;;;;;5.87;3.87;;;25.20;99.90;;;;;;4880260;29;20899;-78
2022/09/12 09:54:56;;;;;;;6.47;3.97;;;26.40;99.90;;;;;;4879730;29;20424;-77
2022/09/12 09:57:34;;;;;;;4.70;3.97;;;26.80;99.90;;;;;;4880088;29;20500;-75
2022/09/12 10:00:28;;;;;;;5.43;4.37;;;27.20;99.90;;;;;;4880240;29;20463;-74
2022/09/12 10:03:34;;;;;;;6.27;4.30;;;27.40;99.90;;;;;;4894629;29;20420;-76
2022/09/12 10:06:05;;;;;;;5.37;4.33;;;27.20;99.90;;;;;;4879562;29;20878;-74
2022/09/12 10:08:36;;;;;;;5.07;4.50;;;27.40;99.90;;;;;;4879812;29;20414;-75
2022/09/12 10:11:16;;;;;;;4.50;4.10;;;26.80;99.90;;;;;;4879955;29;20440;-76
2022/09/12 10:13:56;;;;;;;7.83;4.83;;;27.00;99.90;;;;;;4878930;29;20507;-77
2022/09/12 10:16:51;;;;;;;6.13;4.73;;;27.20;99.90;;;;;;4879722;29;20436;-78
2022/09/12 10:19:23;;;;;;;5.93;5.00;;;27.50;99.90;;;;;;4879824;29;20470;-74
2022/09/12 10:21:54;;;;;;;6.33;5.00;;;28.70;99.90;;;;;;4879729;29;20468;-75
2022/09/12 10:24:40;;;;;;;9.00;5.10;;;28.50;99.90;;;;;;4879488;29;20412;-74
2022/09/12 10:27:12;;;;;;;5.43;4.87;;;28.70;99.90;;;;;;4879591;29;20436;-76
2022/09/12 10:29:50;;;;;;;4.30;3.83;;;29.30;99.90;;;;;;4879601;29;20784;-76
2022/09/12 10:32:47;;;;;;;5.10;3.63;;;29.20;99.90;;;;;;4879670;29;20420;-76
2022/09/12 10:35:20;;;;;;;5.57;4.90;;;28.90;99.90;;;;;;4878070;29;20432;-73
2022/09/12 10:37:55;;;;;;;4.50;4.10;;;29.20;99.90;;;;;;4878750;29;20444;-75
2022/09/12 10:40:35;;;;;;;4.80;4.00;;;29.10;99.90;;;;;;4879289;29;20475;-74
2022/09/12 10:43:14;;;;;;;4.07;3.77;;;28.40;99.90;;;;;;4879239;29;20420;-77
2022/09/12 10:45:40;;;;;;;3.17;2.90;;;28.60;99.90;;;;;;4878921;29;20420;-74
2022/09/12 10:48:30;;;;;;;4.67;2.50;;;29.00;99.90;;;;;;4879415;29;20427;-76
2022/09/12 10:50:56;;;;;;;3.57;3.23;;;29.00;99.90;;;;;;4879289;29;20197;-74
2022/09/12 10:53:25;;;;;;;3.93;2.80;;;29.20;99.90;;;;;;4879536;29;20511;-75
2022/09/12 10:55:50;;;;;;;3.10;2.90;;;29.00;99.90;;;;;;4878971;29;21032;-75
2022/09/12 10:58:34;;;;;;;3.10;2.67;;;28.70;99.90;;;;;;4879440;29;20447;-74
2022/09/12 11:01:30;;;;;;;2.90;2.70;;;28.50;99.90;;;;;;4879185;29;20660;-75
2022/09/12 11:04:17;;;;;;;4.67;3.10;;;28.40;99.90;;;;;;4879381;29;20408;-78
2022/09/12 11:07:16;;;;;;;3.53;3.23;;;27.60;99.90;;;;;;4879498;29;20793;-79
2022/09/12 11:09:58;;;;;;;4.10;3.70;;;28.00;99.90;;;;;;4862649;29;20851;-77
2022/09/12 11:12:40;;;;;;;3.70;2.80;;;28.20;99.90;;;;;;4879369;29;20421;-76
2022/09/12 11:15:21;;;;;;;6.40;3.60;;;28.30;99.90;;;;;;4878715;29;20424;-77
2022/09/12 11:17:50;;;;;;;3.13;2.77;;;28.50;99.90;;;;;;4879496;29;20546;-77
2022/09/12 11:20:34;;;;;;;4.30;3.90;;;28.70;99.90;;;;;;4879322;29;20460;-78
2022/09/12 11:23:31;;;;;;;3.80;3.50;;;28.90;99.90;;;;;;4879296;29;20935;-77
2022/09/12 11:26:25;;;;;;;3.73;3.17;;;28.80;99.90;;;;;;4878792;29;21057;-77
2022/09/12 11:29:32;;;;;;;4.93;3.27;;;28.80;99.90;;;;;;4879056;29;20431;-77
2022/09/12 11:32:25;;;;;;;3.17;2.97;;;28.80;99.90;;;;;;4879643;29;20890;-75
2022/09/12 11:34:57;;;;;;;3.73;3.17;;;29.00;99.90;;;;;;4878676;29;20476;-76
2022/09/12 11:37:35;;;;;;;3.23;2.97;;;29.00;99.90;;;;;;4878909;29;20860;-77
2022/09/12 11:40:19;;;;;;;5.60;2.83;;;29.60;99.90;;;;;;4879858;29;20467;-78
2022/09/12 11:42:47;;;;;;;4.43;3.83;;;29.70;99.90;;;;;;4888854;29;20419;-78
2022/09/12 11:45:24;;;;;;;4.43;3.03;;;30.20;99.90;;;;;;4894204;29;20419;-76
2022/09/12 11:47:54;;;;;;;6.03;3.40;;;30.10;99.90;;;;;;4897676;29;20403;-76
2022/09/12 11:50:28;;;;;;;3.00;2.63;;;29.80;99.90;;;;;;4890384;29;20439;-76
2022/09/12 11:53:02;;;;;;;2.87;2.40;;;29.70;99.90;;;;;;4890913;29;20479;-77
2022/09/12 11:55:33;;;;;;;3.13;2.83;;;30.00;99.90;;;;;;4888748;29;20436;-77
2022/09/12 11:57:59;;;;;;;3.20;2.90;;;30.10;99.90;;;;;;4899675;29;20925;-76
2022/09/12 12:00:43;;;;;;;3.40;3.17;;;30.30;99.90;;;;;;4900481;29;20470;-76
2022/09/12 12:03:22;;;;;;;3.73;3.07;;;30.40;99.90;;;;;;4900678;29;20179;-77
2022/09/12 12:06:03;;;;;;;7.53;2.67;;;30.60;99.90;;;;;;4900312;29;20959;-77
2022/09/12 12:08:30;;;;;;;3.37;3.10;;;31.10;99.90;;;;;;4900677;29;20494;-76
2022/09/12 12:11:01;;;;;;;7.17;2.80;;;30.80;99.90;;;;;;4899783;29;20419;-76
2022/09/12 12:13:33;;;;;;;3.20;2.90;;;31.00;99.90;;;;;;4900607;29;20424;-76
2022/09/12 12:16:11;;;;;;;2.80;2.37;;;30.90;99.90;;;;;;4899059;29;20454;-76
2022/09/12 12:18:38;;;;;;;2.67;2.47;;;30.80;99.90;;;;;;4900603;29;20900;-78
2022/09/12 12:21:38;;;;;;;2.67;2.47;;;31.00;99.90;;;;;;4900494;29;20415;-77
2022/09/12 12:24:07;;;;;;;2.47;2.27;;;31.10;99.90;;;;;;4898047;29;20438;-77
2022/09/12 12:26:39;;;;;;;2.80;2.07;;;31.50;99.90;;;;;;4899152;29;20450;-76
2022/09/12 12:29:34;;;;;;;2.50;2.30;;;31.60;97.50;;;;;;4900280;29;20442;-78
2022/09/12 12:32:02;;;;;;;2.70;2.50;;;31.60;99.90;;;;;;4899782;29;20517;-76
2022/09/12 12:34:44;;;;;;;2.40;2.20;;;31.90;99.40;;;;;;4900015;29;20485;-78
2022/09/12 12:37:22;;;;;;;2.20;2.10;;;32.10;98.70;;;;;;4900285;29;20518;-76
2022/09/12 12:40:03;;;;;;;2.77;2.47;;;32.50;95.20;;;;;;4899922;29;20466;-77
2022/09/12 12:42:34;;;;;;;2.10;1.90;;;32.40;95.00;;;;;;4900280;29;20928;-77
2022/09/12 12:45:08;;;;;;;2.07;1.90;;;32.40;95.20;;;;;;4899752;29;20439;-77
2022/09/12 12:47:37;;;;;;;2.20;2.00;;;32.60;94.60;;;;;;4899876;29;20510;-77
2022/09/12 12:50:20;;;;;;;2.20;1.90;;;32.80;93.20;;;;;;4899991;29;20407;-77
2022/09/12 12:52:46;;;;;;;2.07;1.87;;;32.70;92.80;;;;;;4899910;29;20525;-77
2022/09/12 12:55:16;;;;;;;2.07;1.97;;;33.00;92.60;;;;;;4899678;29;20454;-75
2022/09/12 12:57:51;;;;;;;2.03;1.83;;;33.00;92.30;;;;;;4899694;29;20199;-78
2022/09/12 13:00:19;;;;;;;2.73;2.20;;;33.40;91.40;;;;;;4899371;29;20494;-78
2022/09/12 13:02:54;;;;;;;1.80;1.70;;;33.00;90.50;;;;;;4899816;29;20443;-78